createdAt,value
2024-03-20T00:02:27.093Z,100189.89
2024-03-20T00:04:55.374Z,100184.35
2024-03-20T00:07:23.494Z,100183.05
2024-03-20T00:09:51.525Z,100181.91
2024-03-20T00:12:20.836Z,100181.55
2024-03-20T00:14:49.819Z,100182.52
2024-03-20T00:17:17.907Z,100186.05
2024-03-20T00:19:46.383Z,100187.65
2024-03-20T00:22:14.345Z,100189.15
2024-03-20T00:24:42.444Z,100187.42
2024-03-20T00:27:10.455Z,100189.30
2024-03-20T00:29:38.407Z,100187.14
2024-03-20T00:32:07.139Z,100189.96
2024-03-20T00:34:35.095Z,100192.08
2024-03-20T00:37:03.193Z,100189.43
2024-03-20T00:39:31.331Z,100193.66
2024-03-20T00:41:59.321Z,100194.54
2024-03-20T00:44:27.322Z,100197.48
2024-03-20T00:46:55.337Z,100200.66
2024-03-20T00:49:23.371Z,100204.30
2024-03-20T00:51:51.367Z,100207.63
2024-03-20T00:54:19.325Z,100214.78
2024-03-20T00:56:47.299Z,100214.84
2024-03-20T00:59:18.049Z,100218.69
2024-03-20T01:01:46.057Z,100220.31
2024-03-20T01:04:15.681Z,100221.84
2024-03-20T01:06:44.965Z,100222.25
2024-03-20T01:09:12.946Z,100229.86
2024-03-20T01:11:40.904Z,100229.27
2024-03-20T01:14:08.855Z,100234.08
2024-03-20T01:16:38.259Z,100234.96
2024-03-20T01:19:06.365Z,100240.63
2024-03-20T01:21:34.361Z,100240.83
2024-03-20T01:24:02.353Z,100242.06
2024-03-20T01:26:30.947Z,100247.67
2024-03-20T01:28:58.921Z,100250.41
2024-03-20T01:31:27.058Z,100249.77
2024-03-20T01:33:55.122Z,100250.44
2024-03-20T01:36:23.287Z,100252.16
2024-03-20T01:38:51.328Z,100251.00
2024-03-20T01:41:19.416Z,100254.45
2024-03-20T01:43:55.362Z,100259.11
2024-03-20T01:46:34.711Z,100257.83
2024-03-20T01:49:05.378Z,100260.64
2024-03-20T01:51:34.016Z,100263.64
2024-03-20T01:54:03.365Z,100268.64
2024-03-20T01:56:33.407Z,100271.13
2024-03-20T01:59:01.452Z,100271.70
2024-03-20T02:01:29.432Z,100271.27
2024-03-20T02:03:59.041Z,100276.05
2024-03-20T02:06:29.286Z,100282.55
2024-03-20T02:08:58.608Z,100279.92
2024-03-20T02:11:29.698Z,100280.05
2024-03-20T02:13:58.895Z,100283.29
2024-03-20T02:16:28.561Z,100282.76
2024-03-20T02:18:57.053Z,100284.35
2024-03-20T02:21:25.737Z,100281.92
2024-03-20T02:23:53.757Z,100286.05
2024-03-20T02:26:22.141Z,100287.63
2024-03-20T02:28:50.085Z,100288.56
2024-03-20T02:31:18.088Z,100287.34
2024-03-20T02:33:46.296Z,100290.96
2024-03-20T02:36:14.319Z,100292.70
2024-03-20T02:38:43.095Z,100295.55
2024-03-20T02:41:11.903Z,100292.95
2024-03-20T02:43:39.954Z,100297.34
2024-03-20T02:46:07.951Z,100300.79
2024-03-20T02:48:36.000Z,100300.08
2024-03-20T02:51:04.942Z,100301.73
2024-03-20T02:53:32.911Z,100305.19
2024-03-20T02:56:00.967Z,100305.55
2024-03-20T02:58:28.940Z,100304.92
2024-03-20T03:00:56.947Z,100306.27
2024-03-20T03:03:24.933Z,100310.16
2024-03-20T03:05:52.977Z,100310.91
2024-03-20T03:08:20.989Z,100309.44
2024-03-20T03:10:48.979Z,100310.05
2024-03-20T03:13:17.364Z,100309.75
2024-03-20T03:15:45.378Z,100312.27
2024-03-20T03:18:13.381Z,100313.39
2024-03-20T03:20:44.410Z,100315.92
2024-03-20T03:23:12.491Z,100314.46
2024-03-20T03:25:40.553Z,100319.19
2024-03-20T03:28:08.534Z,100316.59
2024-03-20T03:30:36.624Z,100313.80
2024-03-20T03:33:04.655Z,100314.05
2024-03-20T03:35:32.665Z,100314.96
2024-03-20T03:38:00.658Z,100318.84
2024-03-20T03:40:28.651Z,100316.09
2024-03-20T03:42:56.670Z,100320.21
2024-03-20T03:45:24.699Z,100318.52
2024-03-20T03:47:52.825Z,100316.02
2024-03-20T03:50:20.883Z,100318.20
2024-03-20T03:52:50.592Z,100322.77
2024-03-20T03:55:18.586Z,100316.80
2024-03-20T03:57:46.585Z,100317.79
2024-03-20T04:00:15.037Z,100319.71
2024-03-20T04:02:43.039Z,100319.96
2024-03-20T04:05:11.051Z,100326.20
2024-03-20T04:07:39.068Z,100325.96
2024-03-20T04:10:07.620Z,100332.25
2024-03-20T04:12:35.610Z,100334.11
2024-03-20T04:15:04.137Z,100334.52
2024-03-20T04:17:32.132Z,100334.93
2024-03-20T04:20:00.182Z,100340.33
2024-03-20T04:22:28.246Z,100342.17
2024-03-20T04:24:56.255Z,100344.18
2024-03-20T04:27:24.270Z,100340.23
2024-03-20T04:29:53.359Z,100342.09
2024-03-20T04:32:21.354Z,100340.95
2024-03-20T04:34:49.310Z,100346.08
2024-03-20T04:37:17.302Z,100348.57
2024-03-20T04:39:45.356Z,100351.33
2024-03-20T04:42:13.826Z,100351.29
2024-03-20T04:44:41.868Z,100352.80
2024-03-20T04:47:09.858Z,100351.33
2024-03-20T04:49:37.864Z,100349.43
2024-03-20T04:52:06.407Z,100350.51
2024-03-20T04:54:34.462Z,100348.33
2024-03-20T04:57:02.459Z,100349.31
2024-03-20T04:59:30.448Z,100353.83
2024-03-20T05:01:58.417Z,100353.59
2024-03-20T05:04:26.389Z,100352.61
2024-03-20T05:06:54.635Z,100354.78
2024-03-20T05:09:23.573Z,100354.70
2024-03-20T05:11:52.006Z,100355.92
2024-03-20T05:14:19.965Z,100360.49
2024-03-20T05:16:48.001Z,100363.48
2024-03-20T05:19:16.182Z,100365.20
2024-03-20T05:21:44.379Z,100366.06
2024-03-20T05:24:12.358Z,100363.75
2024-03-20T05:26:40.396Z,100365.18
2024-03-20T05:29:08.724Z,100369.41
2024-03-20T05:31:36.927Z,100370.83
2024-03-20T05:34:05.034Z,100373.70
2024-03-20T05:36:33.018Z,100375.27
2024-03-20T05:39:01.032Z,100369.55
2024-03-20T05:41:29.478Z,100374.36
2024-03-20T05:43:58.202Z,100370.20
2024-03-20T05:46:26.424Z,100375.79
2024-03-20T05:48:54.393Z,100376.00
2024-03-20T05:51:22.360Z,100376.91
2024-03-20T05:53:50.339Z,100381.52
2024-03-20T05:56:18.361Z,100382.83
2024-03-20T05:58:49.817Z,100386.48
2024-03-20T06:01:19.202Z,100386.93
2024-03-20T06:03:47.194Z,100388.45
2024-03-20T06:06:15.197Z,100394.27
2024-03-20T06:11:28.965Z,100396.25
2024-03-20T06:13:58.262Z,100395.35
2024-03-20T06:16:26.283Z,100398.96
2024-03-20T06:18:54.302Z,100402.41
2024-03-20T06:21:22.511Z,100401.38
2024-03-20T06:23:50.596Z,100404.33
2024-03-20T06:26:18.589Z,100406.92
2024-03-20T06:28:46.965Z,100409.64
2024-03-20T06:31:15.277Z,100413.58
2024-03-20T06:33:44.988Z,100417.33
2024-03-20T06:36:13.043Z,100421.48
2024-03-20T06:38:42.178Z,100425.17
2024-03-20T06:41:10.466Z,100422.76
2024-03-20T06:43:39.333Z,100424.70
2024-03-20T06:46:07.359Z,100424.17
2024-03-20T06:48:35.599Z,100423.70
2024-03-20T06:51:06.985Z,100425.67
2024-03-20T06:53:36.390Z,100428.76
2024-03-20T06:56:06.832Z,100432.91
2024-03-20T06:58:34.806Z,100438.51
2024-03-20T07:01:04.161Z,100436.09
2024-03-20T07:03:32.173Z,100437.29
2024-03-20T07:06:00.700Z,100438.93
2024-03-20T07:08:31.236Z,100445.77
2024-03-20T07:10:59.454Z,100441.96
2024-03-20T07:13:27.483Z,100443.04
2024-03-20T07:15:55.438Z,100448.70
2024-03-20T07:18:23.456Z,100453.64
2024-03-20T07:20:51.411Z,100452.23
2024-03-20T07:23:19.504Z,100453.84
2024-03-20T07:25:47.888Z,100454.30
2024-03-20T07:28:15.966Z,100454.67
2024-03-20T07:30:43.940Z,100458.94
2024-03-20T07:33:12.504Z,100457.00
2024-03-20T07:35:48.465Z,100457.91
2024-03-20T07:38:17.165Z,100457.47
2024-03-20T07:40:46.476Z,100455.62
2024-03-20T07:43:15.664Z,100456.31
2024-03-20T07:45:43.678Z,100455.70
2024-03-20T07:48:13.250Z,100457.13
2024-03-20T07:50:41.337Z,100458.16
2024-03-20T07:53:09.783Z,100453.59
2024-03-20T07:55:37.772Z,100454.50
2024-03-20T07:58:07.426Z,100452.89
2024-03-20T08:00:36.481Z,100452.97
2024-03-20T08:03:04.565Z,100453.27
2024-03-20T08:05:32.730Z,100452.41
2024-03-20T08:08:00.690Z,100456.27
2024-03-20T08:10:28.788Z,100460.06
2024-03-20T08:12:56.963Z,100460.61
2024-03-20T08:15:24.986Z,100461.45
2024-03-20T08:17:53.057Z,100459.36
2024-03-20T08:20:21.145Z,100460.99
2024-03-20T08:22:49.118Z,100460.50
2024-03-20T08:25:17.562Z,100456.80
2024-03-20T08:27:45.690Z,100452.13
2024-03-20T08:30:14.619Z,100451.59
2024-03-20T08:32:42.904Z,100448.13
2024-03-20T08:35:14.029Z,100447.11
2024-03-20T08:37:42.085Z,100444.36
2024-03-20T08:40:11.096Z,100443.05
2024-03-20T08:42:39.693Z,100448.42
2024-03-20T08:45:09.413Z,100446.95
2024-03-20T08:47:38.403Z,100442.30
2024-03-20T08:50:09.269Z,100442.89
2024-03-20T08:52:37.342Z,100441.55
2024-03-20T08:55:07.301Z,100442.52
2024-03-20T08:57:37.654Z,100441.83
2024-03-20T09:00:12.135Z,100438.90
2024-03-20T09:02:40.268Z,100434.73
2024-03-20T09:05:09.839Z,100438.41
2024-03-20T09:07:37.947Z,100439.39
2024-03-20T09:10:06.357Z,100437.83
2024-03-20T09:12:34.334Z,100437.08
2024-03-20T09:15:02.901Z,100429.38
2024-03-20T09:17:30.930Z,100432.60
2024-03-20T09:19:59.313Z,100433.35
2024-03-20T09:22:27.479Z,100436.84
2024-03-20T09:24:55.632Z,100433.06
2024-03-20T09:27:23.845Z,100433.29
2024-03-20T09:29:52.103Z,100432.35
2024-03-20T09:32:20.153Z,100433.39
2024-03-20T09:34:48.218Z,100433.86
2024-03-20T09:37:19.968Z,100434.29
2024-03-20T09:39:48.211Z,100428.92
2024-03-20T09:42:16.186Z,100432.24
2024-03-20T09:44:44.469Z,100434.17
2024-03-20T09:47:12.972Z,100432.61
2024-03-20T09:49:41.496Z,100430.95
2024-03-20T09:52:10.806Z,100430.60
2024-03-20T09:54:38.983Z,100435.30
2024-03-20T09:57:07.380Z,100430.79
2024-03-20T09:59:35.461Z,100431.58
2024-03-20T10:02:03.627Z,100426.89
2024-03-20T10:04:42.466Z,100424.77
2024-03-20T10:07:17.478Z,100423.52
2024-03-20T10:09:46.830Z,100422.27
2024-03-20T10:12:18.481Z,100417.80
2024-03-20T10:14:48.517Z,100416.86
2024-03-20T10:17:18.886Z,100420.77
2024-03-20T10:19:46.955Z,100419.67
2024-03-20T10:22:15.213Z,100417.65
2024-03-20T10:24:43.557Z,100420.15
2024-03-20T10:27:13.798Z,100415.35
2024-03-20T10:29:46.118Z,100414.11
2024-03-20T10:32:19.078Z,100411.30
2024-03-20T10:34:49.066Z,100409.80
2024-03-20T10:37:18.613Z,100400.68
2024-03-20T10:39:49.790Z,100401.79
2024-03-20T10:42:19.495Z,100401.00
2024-03-20T10:44:48.014Z,100396.33
2024-03-20T10:47:16.516Z,100395.79
2024-03-20T10:49:45.766Z,100392.33
2024-03-20T10:52:15.418Z,100392.55
2024-03-20T10:54:43.515Z,100395.60
2024-03-20T10:57:12.037Z,100394.78
2024-03-20T10:59:40.120Z,100393.36
2024-03-20T11:02:14.913Z,100388.08
2024-03-20T11:04:44.498Z,100389.79
2024-03-20T11:07:30.488Z,100383.88
2024-03-20T11:09:59.600Z,100385.27
2024-03-20T11:12:35.116Z,100384.25
2024-03-20T11:15:08.497Z,100381.64
2024-03-20T11:17:37.805Z,100379.42
2024-03-20T11:20:13.664Z,100375.07
2024-03-20T11:22:41.627Z,100364.05
2024-03-20T11:25:12.227Z,100366.59
2024-03-20T11:27:40.594Z,100374.88
2024-03-20T11:30:10.870Z,100374.98
2024-03-20T11:32:38.823Z,100369.33
2024-03-20T11:35:09.345Z,100366.17
2024-03-20T11:37:37.719Z,100363.30
2024-03-20T11:40:06.895Z,100368.62
2024-03-20T11:42:34.864Z,100371.27
2024-03-20T11:45:05.113Z,100369.07
2024-03-20T11:47:33.204Z,100373.37
2024-03-20T11:50:01.336Z,100372.64
2024-03-20T11:52:30.043Z,100374.27
2024-03-20T11:55:00.236Z,100375.87
2024-03-20T11:57:28.669Z,100376.11
2024-03-20T11:59:57.335Z,100375.09
2024-03-20T12:02:26.245Z,100372.77
2024-03-20T12:04:54.588Z,100372.16
2024-03-20T12:07:26.983Z,100372.40
2024-03-20T12:09:56.103Z,100372.20
2024-03-20T12:12:28.427Z,100365.98
2024-03-20T12:14:57.637Z,100366.42
2024-03-20T12:17:27.784Z,100364.81
2024-03-20T12:19:57.044Z,100361.78
2024-03-20T12:22:25.854Z,100361.98
2024-03-20T12:25:01.900Z,100359.26
2024-03-20T12:27:33.124Z,100359.80
2024-03-20T12:30:01.203Z,100360.08
2024-03-20T12:32:29.814Z,100353.77
2024-03-20T12:34:57.922Z,100352.41
2024-03-20T12:37:27.790Z,100358.00
2024-03-20T12:39:58.854Z,100358.97
2024-03-20T12:42:27.113Z,100360.64
2024-03-20T12:44:56.098Z,100353.81
2024-03-20T12:47:24.138Z,100352.70
2024-03-20T12:49:54.015Z,100352.44
2024-03-20T12:52:22.134Z,100349.41
2024-03-20T12:54:51.837Z,100347.65
2024-03-20T12:57:19.863Z,100346.73
2024-03-20T12:59:48.230Z,100348.37
2024-03-20T13:02:17.446Z,100352.15
2024-03-20T13:04:48.559Z,100351.00
2024-03-20T13:07:17.232Z,100352.14
2024-03-20T13:09:48.144Z,100352.23
2024-03-20T13:12:16.465Z,100352.09
2024-03-20T13:14:44.510Z,100350.41
2024-03-20T13:17:19.463Z,100352.52
2024-03-20T13:19:47.938Z,100351.64
2024-03-20T13:22:20.774Z,100351.95
2024-03-20T13:24:50.063Z,100354.20
2024-03-20T13:27:22.009Z,100349.90
2024-03-20T13:29:50.865Z,100344.63
2024-03-20T13:32:23.991Z,100343.83
2024-03-20T13:34:54.786Z,100338.40
2024-03-20T13:37:27.804Z,100342.30
2024-03-20T13:40:15.804Z,100345.77
2024-03-20T13:43:19.550Z,100346.11
2024-03-20T13:45:58.762Z,100344.27
2024-03-20T13:48:27.466Z,100345.89
2024-03-20T13:50:55.421Z,100347.58
2024-03-20T13:53:24.332Z,100352.45
2024-03-20T13:55:54.627Z,100353.32
2024-03-20T13:58:26.516Z,100353.71
2024-03-20T14:00:55.099Z,100353.38
2024-03-20T14:03:23.096Z,100358.05
2024-03-20T14:05:51.539Z,100356.11
2024-03-20T14:08:33.457Z,100362.09
2024-03-20T14:11:06.905Z,100364.16
2024-03-20T14:13:35.272Z,100362.86
2024-03-20T14:16:04.196Z,100363.31
2024-03-20T14:18:32.273Z,100360.84
2024-03-20T14:21:00.349Z,100365.16
2024-03-20T14:23:28.791Z,100365.36
2024-03-20T14:25:58.025Z,100364.37
2024-03-20T14:28:25.970Z,100362.27
2024-03-20T14:30:53.967Z,100359.92
2024-03-20T14:33:21.955Z,100363.37
2024-03-20T14:35:49.975Z,100360.71
2024-03-20T14:38:44.135Z,100365.80
2024-03-20T14:41:19.943Z,100364.00
2024-03-20T14:43:51.288Z,100361.71
2024-03-20T14:46:23.282Z,100361.05
2024-03-20T14:48:51.557Z,100360.02
2024-03-20T14:51:22.749Z,100358.06
2024-03-20T14:53:51.935Z,100360.61
2024-03-20T14:56:21.200Z,100361.81
2024-03-20T14:58:52.529Z,100366.80
2024-03-20T15:01:22.321Z,100369.40
2024-03-20T15:03:50.530Z,100371.81
2024-03-20T15:06:20.388Z,100368.45
2024-03-20T15:08:54.205Z,100370.48
2024-03-20T15:11:25.090Z,100370.73
2024-03-20T15:13:53.988Z,100367.66
2024-03-20T15:16:23.948Z,100374.48
2024-03-20T15:18:54.462Z,100380.02
2024-03-20T15:21:24.082Z,100381.38
2024-03-20T15:23:53.376Z,100384.77
2024-03-20T15:26:23.295Z,100386.15
2024-03-20T15:28:53.449Z,100385.14
2024-03-20T15:31:24.485Z,100386.23
2024-03-20T15:33:52.607Z,100387.63
2024-03-20T15:36:21.217Z,100392.95
2024-03-20T15:38:50.166Z,100393.69
2024-03-20T15:41:22.519Z,100390.74
2024-03-20T15:43:51.796Z,100394.97
2024-03-20T15:46:20.665Z,100392.57
2024-03-20T15:48:51.415Z,100396.36
2024-03-20T15:51:22.861Z,100396.30
2024-03-20T15:53:51.758Z,100398.48
2024-03-20T15:56:20.210Z,100399.91
2024-03-20T15:58:51.129Z,100405.96
2024-03-20T16:01:21.986Z,100409.00
2024-03-20T16:03:52.887Z,100414.48
2024-03-20T16:06:21.055Z,100417.48
2024-03-20T16:08:49.061Z,100417.66
2024-03-20T16:11:17.066Z,100423.20
2024-03-20T16:13:45.202Z,100421.13
2024-03-20T16:16:18.068Z,100421.17
2024-03-20T16:18:46.152Z,100418.77
2024-03-20T16:21:14.475Z,100424.02
2024-03-20T16:23:43.295Z,100427.15
2024-03-20T16:26:16.921Z,100425.27
2024-03-20T16:28:45.319Z,100427.79
2024-03-20T16:31:13.431Z,100430.59
2024-03-20T16:33:41.487Z,100435.39
2024-03-20T16:36:09.636Z,100436.06
2024-03-20T16:38:39.559Z,100433.40
2024-03-20T16:41:16.436Z,100438.39
2024-03-20T16:43:51.065Z,100443.20
2024-03-20T16:46:19.359Z,100447.48
2024-03-20T16:48:47.676Z,100447.25
2024-03-20T16:51:16.497Z,100447.75
2024-03-20T16:53:44.750Z,100448.09
2024-03-20T16:56:13.424Z,100448.36
2024-03-20T16:58:42.040Z,100449.83
2024-03-20T17:01:10.071Z,100449.11
2024-03-20T17:03:38.306Z,100452.95
2024-03-20T17:06:08.010Z,100455.31
2024-03-20T17:08:36.088Z,100456.24
2024-03-20T17:11:04.247Z,100454.34
2024-03-20T17:13:32.279Z,100456.20
2024-03-20T17:16:00.286Z,100458.26
2024-03-20T17:18:28.296Z,100459.58
2024-03-20T17:20:57.042Z,100460.70
2024-03-20T17:23:26.030Z,100459.55
2024-03-20T17:25:54.140Z,100463.13
2024-03-20T17:28:22.233Z,100463.34
2024-03-20T17:30:50.203Z,100461.02
2024-03-20T17:33:18.222Z,100469.40
2024-03-20T17:35:52.288Z,100462.50
2024-03-20T17:38:20.851Z,100468.59
2024-03-20T17:40:55.227Z,100469.77
2024-03-20T17:43:23.296Z,100469.55
2024-03-20T17:45:51.278Z,100470.77
2024-03-20T17:48:19.239Z,100471.50
2024-03-20T17:50:47.421Z,100473.77
2024-03-20T17:53:15.423Z,100474.63
2024-03-20T17:55:43.393Z,100478.86
2024-03-20T17:58:11.662Z,100477.08
2024-03-20T18:00:39.685Z,100479.67
2024-03-20T18:03:07.677Z,100478.05
2024-03-20T18:05:35.701Z,100475.71
2024-03-20T18:08:03.762Z,100475.04
2024-03-20T18:10:31.739Z,100475.05
2024-03-20T18:12:59.690Z,100480.61
2024-03-20T18:15:28.051Z,100476.22
2024-03-20T18:17:56.092Z,100478.33
2024-03-20T18:20:24.186Z,100484.61
2024-03-20T18:22:52.161Z,100482.43
2024-03-20T18:25:20.526Z,100481.96
2024-03-20T18:27:48.654Z,100483.31
2024-03-20T18:30:17.258Z,100483.29
2024-03-20T18:32:45.211Z,100489.45
2024-03-20T18:35:13.344Z,100488.46
2024-03-20T18:37:41.892Z,100487.23
2024-03-20T18:40:13.028Z,100484.29
2024-03-20T18:42:40.994Z,100484.80
2024-03-20T18:45:11.272Z,100486.08
2024-03-20T18:47:39.312Z,100484.84
2024-03-20T18:50:08.553Z,100482.98
2024-03-20T18:52:36.672Z,100480.89
2024-03-20T18:55:05.670Z,100482.46
2024-03-20T18:57:36.279Z,100480.60
2024-03-20T19:00:09.597Z,100478.87
2024-03-20T19:02:38.078Z,100475.98
2024-03-20T19:05:06.213Z,100477.74
2024-03-20T19:07:34.251Z,100473.46
2024-03-20T19:10:02.219Z,100475.90
2024-03-20T19:12:30.463Z,100477.83
2024-03-20T19:14:58.513Z,100477.34
2024-03-20T19:17:26.479Z,100479.76
2024-03-20T19:19:57.186Z,100476.44
2024-03-20T19:22:25.379Z,100473.98
2024-03-20T19:24:54.739Z,100475.98
2024-03-20T19:27:22.784Z,100476.66
2024-03-20T19:29:54.562Z,100477.63
2024-03-20T19:32:22.679Z,100481.20
2024-03-20T19:34:50.738Z,100482.08
2024-03-20T19:37:18.686Z,100486.07
2024-03-20T19:39:46.674Z,100486.67
2024-03-20T19:42:14.686Z,100483.27
2024-03-20T19:44:47.666Z,100483.13
2024-03-20T19:47:15.501Z,100482.98
2024-03-20T19:49:43.960Z,100482.29
2024-03-20T19:52:11.903Z,100482.29
2024-03-20T19:54:40.905Z,100479.93
2024-03-20T19:57:10.781Z,100480.82
2024-03-20T19:59:38.830Z,100478.26
2024-03-20T20:02:06.937Z,100475.77
2024-03-20T20:04:35.137Z,100474.73
2024-03-20T20:07:04.422Z,100475.13
2024-03-20T20:09:35.511Z,100480.30
2024-03-20T20:12:06.527Z,100479.31
2024-03-20T20:14:34.517Z,100480.89
2024-03-20T20:17:02.559Z,100481.89
2024-03-20T20:19:30.580Z,100486.16
2024-03-20T20:21:58.564Z,100483.83
2024-03-20T20:24:26.606Z,100482.15
2024-03-20T20:26:54.631Z,100483.82
2024-03-20T20:29:22.617Z,100488.92
2024-03-20T20:31:50.609Z,100490.38
2024-03-20T20:34:18.552Z,100493.52
2024-03-20T20:36:47.647Z,100494.29
2024-03-20T20:39:15.608Z,100492.80
2024-03-20T20:41:45.353Z,100491.30
2024-03-20T20:44:13.444Z,100495.17
2024-03-20T20:46:41.737Z,100492.15
2024-03-20T20:49:09.803Z,100493.20
2024-03-20T20:51:37.804Z,100493.45
2024-03-20T20:54:06.360Z,100491.94
2024-03-20T20:56:34.441Z,100498.58
2024-03-20T20:59:02.445Z,100495.41
2024-03-20T21:01:30.705Z,100500.66
2024-03-20T21:04:17.387Z,100499.70
2024-03-20T21:07:04.122Z,100500.72
2024-03-20T21:09:50.973Z,100494.71
2024-03-20T21:12:37.707Z,100493.71
2024-03-20T21:15:25.015Z,100492.61
2024-03-20T21:18:11.654Z,100497.17
2024-03-20T21:20:40.056Z,100494.80
2024-03-20T21:23:14.270Z,100496.71
2024-03-20T21:25:42.227Z,100499.52
2024-03-20T21:28:10.213Z,100495.60
2024-03-20T21:30:38.265Z,100494.51
2024-03-20T21:33:06.248Z,100494.10
2024-03-20T21:35:34.258Z,100495.23
2024-03-20T21:38:02.252Z,100494.98
2024-03-20T21:40:32.674Z,100499.38
2024-03-20T21:43:00.712Z,100496.17
2024-03-20T21:45:28.736Z,100494.58
2024-03-20T21:47:56.721Z,100496.09
2024-03-20T21:50:24.718Z,100495.70
2024-03-20T21:52:52.857Z,100496.31
2024-03-20T21:55:21.837Z,100496.27
2024-03-20T21:57:50.828Z,100493.35
2024-03-20T22:00:19.236Z,100491.38
2024-03-20T22:02:47.286Z,100494.25
2024-03-20T22:05:15.242Z,100496.02
2024-03-20T22:07:45.712Z,100494.01
2024-03-20T22:10:24.676Z,100492.53
2024-03-20T22:12:53.758Z,100490.80
2024-03-20T22:15:21.856Z,100492.03
2024-03-20T22:17:49.817Z,100491.71
2024-03-20T22:20:18.827Z,100493.60
2024-03-20T22:22:48.843Z,100491.98
2024-03-20T22:25:16.957Z,100492.10
2024-03-20T22:27:45.012Z,100493.14
2024-03-20T22:30:17.733Z,100490.09
2024-03-20T22:32:47.018Z,100488.73
2024-03-20T22:35:15.084Z,100492.34
2024-03-20T22:37:43.185Z,100492.79
2024-03-20T22:40:13.251Z,100493.90
2024-03-20T22:42:41.222Z,100490.15
2024-03-20T22:45:20.510Z,100492.09
2024-03-20T22:47:53.400Z,100492.13
2024-03-20T22:50:21.262Z,100494.67
2024-03-20T22:52:49.546Z,100492.29
2024-03-20T22:55:17.543Z,100493.36
2024-03-20T22:57:53.393Z,100490.89
2024-03-20T23:00:46.937Z,100490.19
2024-03-20T23:03:19.732Z,100492.13
2024-03-20T23:05:56.093Z,100490.89
2024-03-20T23:08:24.043Z,100487.32
2024-03-20T23:10:52.252Z,100488.30
2024-03-20T23:13:20.213Z,100486.32
2024-03-20T23:15:48.245Z,100483.58
2024-03-20T23:18:16.210Z,100479.98
2024-03-20T23:20:45.047Z,100474.90
2024-03-20T23:23:13.064Z,100472.04
2024-03-20T23:25:45.060Z,100470.38
2024-03-20T23:28:19.277Z,100469.61
2024-03-20T23:30:47.240Z,100473.10
2024-03-20T23:33:15.478Z,100469.57
2024-03-20T23:35:43.419Z,100470.73
2024-03-20T23:38:15.090Z,100469.23
2024-03-20T23:40:43.747Z,100471.59
2024-03-20T23:43:11.790Z,100469.37
2024-03-20T23:45:39.723Z,100467.64
2024-03-20T23:48:08.193Z,100466.13
2024-03-20T23:50:36.245Z,100464.05
2024-03-20T23:53:04.431Z,100462.56
2024-03-20T23:55:32.691Z,100461.81
2024-03-20T23:58:00.684Z,100463.41
